WetterOnline ( https://www.wetteronline.de )

Wetter aktuell Sinsheim

Aktuelles Wetter: Waibstadt (237m)

6-stündlich | Neueste Meldungen
Ortszeit Temperatur Wetter
Fr, 30.07. 14:00 24.7° C wolkenlos
Fr, 30.07. 8:00 15.7° C wolkenlos
Fr, 30.07. 2:00 13.5° C wolkenlos
Do, 29.07. 20:00 21.4° C wolkenlos
Do, 29.07. 14:00 22.1° C fast wolkenlos
Do, 29.07. 8:00 16.2° C bewölkt
Do, 29.07. 2:00 16.2° C wolkenlos
Mi, 28.07. 20:00 18.2° C wolkig
Ortszeit Temperatur Wetter
Fr, 30.07. 19:00 24.4° C leicht bewölkt
Fr, 30.07. 18:50 24.4° C leicht bewölkt
Fr, 30.07. 18:40 24.1° C fast wolkenlos
Fr, 30.07. 18:30 24.3° C fast wolkenlos
Fr, 30.07. 18:20 24.3° C fast wolkenlos
Fr, 30.07. 18:10 24.8° C wolkenlos
Fr, 30.07. 18:00 25.7° C leicht bewölkt
Fr, 30.07. 17:30 25.6° C leicht bewölkt
Fr, 30.07. 17:00 24.7° C leicht bewölkt
Fr, 30.07. 16:30 25.1° C leicht bewölkt
Fr, 30.07. 16:00 25.8° C leicht bewölkt
Ortszeit Relative Feuchte Sichtweite
Fr, 30.07. 14:00 53% 45 km
Fr, 30.07. 8:00 82% 45 km
Fr, 30.07. 2:00 89% 45 km
Do, 29.07. 20:00 52% 50 km
Do, 29.07. 14:00 51% 40 km
Do, 29.07. 8:00 85% 45 km
Do, 29.07. 2:00 87% 55 km
Mi, 28.07. 20:00 91% 40 km
Ortszeit Relative Feuchte Sichtweite
Fr, 30.07. 19:00 55% 40 km
Fr, 30.07. 18:50 55% -
Fr, 30.07. 18:40 57% -
Fr, 30.07. 18:30 56% 45 km
Fr, 30.07. 18:20 56% -
Fr, 30.07. 18:10 54% -
Fr, 30.07. 18:00 51% 45 km
Fr, 30.07. 17:30 53% 50 km
Fr, 30.07. 17:00 55% 45 km
Fr, 30.07. 16:30 54% 50 km
Fr, 30.07. 16:00 54% >70 km
Ortszeit Niederschlagsmenge Niederschlagsart
Fr, 30.07. 14:00 0.0 l/m2 in 6 Std. -
Fr, 30.07. 8:00 0.0 l/m2 in 12 Std. -
Fr, 30.07. 2:00 0.0 l/m2 in 6 Std. -
Do, 29.07. 20:00 0.0 l/m2 in 12 Std. -
Do, 29.07. 14:00 0.0 l/m2 in 6 Std. -
Do, 29.07. 8:00 0.4 l/m2 in 12 Std. -
Do, 29.07. 2:00 0.4 l/m2 in 6 Std. Regen, Niederschlag
Mi, 28.07. 20:00 2 l/m2 in 12 Std. Regen, Niederschlag
Ortszeit Niederschlagsmenge Niederschlagsart
Fr, 30.07. 19:00 0.0 l/m2 in 1 Std. -
Fr, 30.07. 18:50 keine Meldung -
Fr, 30.07. 18:40 keine Meldung -
Fr, 30.07. 18:30 0.0 l/m2 in 1 Std. -
Fr, 30.07. 18:20 keine Meldung -
Fr, 30.07. 18:10 keine Meldung -
Fr, 30.07. 18:00 0.0 l/m2 in 1 Std. -
Fr, 30.07. 17:30 0.0 l/m2 in 1 Std. -
Fr, 30.07. 17:00 0.0 l/m2 in 1 Std. -
Fr, 30.07. 16:30 0.0 l/m2 in 1 Std. -
Fr, 30.07. 16:00 0.0 l/m2 in 1 Std. -
Ortszeit Stärke Spitze Richtung
km/h Bft. km/h Grad Sektor
Fr, 30.07. 14:00 14 3 32 250° W
Fr, 30.07. 8:00 6 1 9 90° O
Fr, 30.07. 2:00 4 1 18 100° O
Do, 29.07. 20:00 9 2 39 300° NW
Do, 29.07. 14:00 22 4 43 260° W
Do, 29.07. 8:00 9 2 19 220° SW
Do, 29.07. 2:00 11 2 20 240° SW
Mi, 28.07. 20:00 7 2 36 220° SW
Ortszeit Stärke Spitze Richtung
km/h Bft. km/h Grad Sektor
Fr, 30.07. 19:00 13 3 28 260° W
Fr, 30.07. 18:50 13 3 - 260° W
Fr, 30.07. 18:40 14 3 - 250° W
Fr, 30.07. 18:30 14 3 29 250° W
Fr, 30.07. 18:20 14 3 - 250° W
Fr, 30.07. 18:10 14 3 - 260° W
Fr, 30.07. 18:00 14 3 32 260° W
Fr, 30.07. 17:30 17 3 28 260° W
Fr, 30.07. 17:00 18 3 32 270° W
Fr, 30.07. 16:30 14 3 32 250° W
Fr, 30.07. 16:00 14 3 32 260° W
Ortszeit Untergrenze Bedeckung Gattung
total tief tief mittel hoch
Fr, 30.07. 14:00 - 0/8 0/8 - - -
Fr, 30.07. 8:00 - 0/8 0/8 - - -
Fr, 30.07. 2:00 - 0/8 0/8 - - -
Do, 29.07. 20:00 - 0/8 0/8 - - -
Do, 29.07. 14:00 1500 m 0/8 0/8 - - -
Do, 29.07. 8:00 2100 m 7/8 7/8 - - -
Do, 29.07. 2:00 - 0/8 0/8 - - -
Mi, 28.07. 20:00 2400 m 6/8 5/8 - - -
Ortszeit Bedeckungsgrad in Achtel und Wolkenuntergrenze
Fr, 30.07. 19:00 3(1500m)
Fr, 30.07. 18:50 3(1500m)
Fr, 30.07. 18:40 1(1800m)
Fr, 30.07. 18:30 1(1800m)
Fr, 30.07. 18:20 1(1800m)
Fr, 30.07. 18:10 keine Wolken
Fr, 30.07. 18:00 1(1500m)
Fr, 30.07. 17:30 3(1500m)
Fr, 30.07. 17:00 2(1500m)
Fr, 30.07. 16:30 3(1500m)
Fr, 30.07. 16:00 3(1500m)
Ortszeit Luftdruck NN (hPa) Tendenz (hPa in 3 Std.)
Fr, 30.07. 14:00 1010 - 1,3
Fr, 30.07. 8:00 1013 - 0,5
Fr, 30.07. 2:00 1014 - 0,2
Do, 29.07. 20:00 1013 - 0,7
Do, 29.07. 14:00 1015 - 0,4
Do, 29.07. 8:00 1015 + 0,4
Do, 29.07. 2:00 1015 + 0,1
Mi, 28.07. 20:00 1014 - 0,1
Ortszeit Luftdruck NN (hPa) Tendenz (hPa in 3 Std.)
Fr, 30.07. 19:00 1008 - 0,5
Fr, 30.07. 18:50 1008 keine Meldung
Fr, 30.07. 18:40 1008 keine Meldung
Fr, 30.07. 18:30 1008 - 0,8
Fr, 30.07. 18:20 1008 keine Meldung
Fr, 30.07. 18:10 1008 keine Meldung
Fr, 30.07. 18:00 1008 - 1,4
Fr, 30.07. 17:30 1008 - 1,4
Fr, 30.07. 17:00 1008 - 1,9
Fr, 30.07. 16:30 1008 - 2,1
Fr, 30.07. 16:00 1008 - 2,2
Ortszeit Schneehöhe (cm)
Fr, 30.07. 14:00 -
Fr, 30.07. 8:00 -
Fr, 30.07. 2:00 -
Do, 29.07. 20:00 -
Do, 29.07. 14:00 -
Do, 29.07. 8:00 -
Do, 29.07. 2:00 -
Mi, 28.07. 20:00 -
Ortszeit Schneehöhe (cm)
Fr, 30.07. 19:00 -
Fr, 30.07. 18:50 -
Fr, 30.07. 18:40 -
Fr, 30.07. 18:30 -
Fr, 30.07. 18:20 -
Fr, 30.07. 18:10 -
Fr, 30.07. 18:00 -
Fr, 30.07. 17:30 -
Fr, 30.07. 17:00 -
Fr, 30.07. 16:30 -
Fr, 30.07. 16:00 -
Link zu dieser Seite / Seite empfehlen

Das Wetter in ...